Airport ID:KJTC
Update Time (UTC):04/10/2022 13:50
Wind Speed (Knots):1
Wind Direction (Magnetic):200
Temperature (°C):10
Dew Point (°C):6
Humidity (%):80
Altimeter (inHg):30.24
Density Altitude (Feet):
Visibility:10+
Clouds (Hundreds of feet):CLR
Present Weather:
METAR:METAR KJTC 041345Z AUTO 00000KT 10SM CLR 10/06 A3024 RMK AO2

The data displayed is for advisory purposes only and is not to be used for flight planning or operations.